ADDS TAF Data INFO
IDs: Format: Raw Decoded Include METARs

Data at: 0343 UTC 19 Jul 2018

TAF for:KCYS (Cheyenne Rgnl, WY, US) issued at 2320 UTC 18 Jul 2018
Text:KCYS 182320Z 1900/1924 32014KT P6SM SKC
Forecast period:0000 to 0300 UTC 19 July 2018
Forecast type:FROM: standard forecast or significant change
Winds:from the NW (320 degrees) at 16 MPH (14 knots; 7.2 m/s)
Visibility:6 or more sm (10+ km)
Ceiling:at least 12,000 feet AGL
Clouds:clear skies
Text:FM190300 28010KT P6SM SKC
Forecast period:0300 to 1800 UTC 19 July 2018
Forecast type:FROM: standard forecast or significant change
Winds:from the W (280 degrees) at 12 MPH (10 knots; 5.1 m/s)
Visibility:6 or more sm (10+ km)
Ceiling:at least 12,000 feet AGL
Clouds:clear skies
Text:FM191800 31025G30KT P6SM SKC
Forecast period:1800 UTC 19 July 2018 to 0000 UTC 20 July 2018
Forecast type:FROM: standard forecast or significant change
Winds:from the NW (310 degrees) at 29 MPH (25 knots; 12.9 m/s) gusting to 34 MPH (30 knots; 15.4 m/s)
Visibility:6 or more sm (10+ km)
Ceiling:at least 12,000 feet AGL
Clouds:clear skies